San Julian, Argentina
Current Conditions -  °F | °C
As of 2:00 AM on Thursday 27 Nov 2014 (Local Time) from SAWG Reporting Station
Scattered Clouds Scattered Clouds  
Wind Chill: 50°   Ceiling: Unl
Heat Index: 50°   Visibility: 6mi
Dew Point: 37°   Wind: 0mph
Humidity: 62%   Direction: NA
Pressure: 29.8"   Gusts: NA
Location:  49.31°S, 67.71°W
Report Text: SAWG 270500Z 00000KT 9999 SCT040 SCT10010/03 Q1009
Loading
Personal Weather Stations






























Interactive Weather Map New forecast layout! Learn more

10-Day Weather Forecast

Advertisements
Track Severe Weather on mobile